Terminal Aerodrome Forecast
Issued by NWS Buffalo, NY

Home | Current Version | Previous Version | Text Only | Print | Product List | Glossary On
Versions: 1 2 3 4 5 6 7 8 9 10 11 12 13 14 15 16 17 18 19 20 21 22 23 24 25 26 27 28
000
FTUS41 KBUF 300900 AAA
TAFROC
TAF AMD
KROC 300904Z 3009/3106 22015G25KT P6SM -SHRA OVC025
     FM301300 26018G30KT P6SM OVC030
     FM301700 27020G33KT 6SM -SHRASN OVC040
     FM302100 28018G28KT P6SM BKN040
     FM310000 27013KT P6SM SCT040=

USA.gov is the U.S. government's official web portal to all federal, state and local government web resources and services.